createdAt,value
2023-10-08T00:00:47.153Z,99962.03
2023-10-08T00:01:23.022Z,99962.25
2023-10-08T00:01:59.155Z,99957.25
2023-10-08T00:02:34.347Z,99959.47
2023-10-08T00:03:12.613Z,99959.94
2023-10-08T00:03:55.384Z,99957.25
2023-10-08T00:04:30.720Z,99960.41
2023-10-08T00:05:07.051Z,99958.72
2023-10-08T00:05:42.995Z,99948.88
2023-10-08T00:06:22.094Z,99940.47
2023-10-08T00:06:57.437Z,99957.41
2023-10-08T00:07:31.064Z,99949.03
2023-10-08T00:08:07.347Z,99951.53
2023-10-08T00:08:42.924Z,99945.28
2023-10-08T00:09:18.018Z,99957.41
2023-10-08T00:09:54.176Z,99953.00
2023-10-08T00:10:29.686Z,99951.34
2023-10-08T00:11:11.822Z,99945.47
2023-10-08T00:11:52.738Z,99951.34
2023-10-08T00:12:30.557Z,99954.69
2023-10-08T00:13:08.898Z,99938.59
2023-10-08T00:13:43.775Z,99940.47
2023-10-08T00:14:23.697Z,99948.41
2023-10-08T00:14:56.997Z,99941.97
2023-10-08T00:15:33.402Z,99934.84
2023-10-08T00:16:12.840Z,99938.38
2023-10-08T00:16:51.772Z,99943.38
2023-10-08T00:17:27.615Z,99937.75
2023-10-08T00:18:02.650Z,99944.69
2023-10-08T00:18:38.548Z,99931.50
2023-10-08T00:19:16.282Z,99927.34
2023-10-08T00:19:54.456Z,99926.94
2023-10-08T00:20:36.796Z,99935.06
2023-10-08T00:21:12.428Z,99929.41
2023-10-08T00:21:46.815Z,99934.84
2023-10-08T00:22:21.364Z,99928.97
2023-10-08T00:22:57.135Z,99928.56
2023-10-08T00:23:32.702Z,99920.63
2023-10-08T00:24:10.457Z,99924.81
2023-10-08T00:25:17.638Z,99918.78
2023-10-08T00:25:56.842Z,99919.00
2023-10-08T00:26:32.495Z,99930.69
2023-10-08T00:27:08.000Z,99923.97
2023-10-08T00:27:43.438Z,99926.31
2023-10-08T00:28:19.614Z,99933.19
2023-10-08T00:28:54.658Z,99921.28
2023-10-08T00:29:28.542Z,99927.97
2023-10-08T00:30:39.935Z,99928.56
2023-10-08T00:31:18.776Z,99917.69
2023-10-08T00:31:58.326Z,99923.53
2023-10-08T00:33:18.433Z,99925.63
2023-10-08T00:34:28.834Z,99926.19
2023-10-08T00:35:02.786Z,99932.41
2023-10-08T00:35:43.394Z,99925.88
2023-10-08T00:36:20.089Z,99923.44
2023-10-08T00:36:55.085Z,99920.72
2023-10-08T00:37:30.995Z,99926.78
2023-10-08T00:38:16.039Z,99926.97
2023-10-08T00:38:51.943Z,99922.13
2023-10-08T00:39:26.331Z,99921.31
2023-10-08T00:40:39.787Z,99924.47
2023-10-08T00:41:16.434Z,99919.22
2023-10-08T00:42:00.328Z,99924.44
2023-10-08T00:42:37.240Z,99918.94
2023-10-08T00:43:12.027Z,99917.06
2023-10-08T00:43:47.240Z,99929.03
2023-10-08T00:44:30.936Z,99920.63
2023-10-08T00:45:06.613Z,99920.88
2023-10-08T00:45:45.120Z,99922.94
2023-10-08T00:46:20.930Z,99926.31
2023-10-08T00:47:28.198Z,99920.41
2023-10-08T00:48:04.208Z,99916.06
2023-10-08T00:48:40.427Z,99913.38
2023-10-08T00:49:27.445Z,99914.41
2023-10-08T00:50:07.938Z,99910.00
2023-10-08T00:50:50.557Z,99914.78
2023-10-08T00:51:33.273Z,99911.44
2023-10-08T00:53:40.495Z,99913.56
2023-10-08T00:54:52.831Z,99917.75
2023-10-08T00:55:31.609Z,99911.88
2023-10-08T00:56:14.699Z,99917.75
2023-10-08T00:56:58.056Z,99906.25
2023-10-08T00:57:39.980Z,99904.97
2023-10-08T00:58:25.674Z,99909.56
2023-10-08T00:59:03.243Z,99908.72
2023-10-08T00:59:46.186Z,99910.97
2023-10-08T01:00:33.117Z,99906.84
2023-10-08T01:01:11.945Z,99904.53
2023-10-08T01:02:06.651Z,99905.38
2023-10-08T01:02:48.210Z,99905.38
2023-10-08T01:03:23.864Z,99905.75
2023-10-08T01:03:57.829Z,99911.44
2023-10-08T01:04:35.222Z,99917.06
2023-10-08T01:05:13.045Z,99915.56
2023-10-08T01:05:49.842Z,99913.06
2023-10-08T01:06:31.151Z,99912.84
2023-10-08T01:07:16.928Z,99913.66
2023-10-08T01:07:53.422Z,99908.63
2023-10-08T01:08:38.464Z,99916.31
2023-10-08T01:09:28.498Z,99905.59
2023-10-08T01:10:11.801Z,99908.94
2023-10-08T01:10:48.592Z,99912.31
2023-10-08T01:11:47.818Z,99904.78
2023-10-08T01:12:35.281Z,99907.03
2023-10-08T01:13:21.810Z,99907.69
2023-10-08T01:13:56.590Z,99912.44
2023-10-08T01:14:34.160Z,99907.69
2023-10-08T01:15:21.039Z,99906.59
2023-10-08T01:15:56.637Z,99906.78
2023-10-08T01:16:35.747Z,99919.13
2023-10-08T01:17:16.094Z,99909.94
2023-10-08T01:18:02.195Z,99914.59
2023-10-08T01:18:38.773Z,99918.97
2023-10-08T01:19:15.695Z,99905.19
2023-10-08T01:19:56.458Z,99900.81
2023-10-08T01:20:37.866Z,99911.44
2023-10-08T01:21:19.445Z,99902.06
2023-10-08T01:21:54.625Z,99910.19
2023-10-08T01:22:31.483Z,99912.06
2023-10-08T01:23:15.648Z,99908.72
2023-10-08T01:23:51.371Z,99912.91
2023-10-08T01:24:28.897Z,99916.00
2023-10-08T01:25:04.327Z,99919.75
2023-10-08T01:25:40.055Z,99910.97
2023-10-08T01:26:24.393Z,99906.13
2023-10-08T01:26:59.925Z,99910.34
2023-10-08T01:27:36.142Z,99910.97
2023-10-08T01:28:38.459Z,99910.13
2023-10-08T01:29:21.455Z,99911.75
2023-10-08T01:29:57.226Z,99913.00
2023-10-08T01:30:37.463Z,99905.50
2023-10-08T01:31:14.339Z,99900.06
2023-10-08T01:31:54.542Z,99900.53
2023-10-08T01:32:28.132Z,99901.38
2023-10-08T01:33:04.967Z,99900.69
2023-10-08T01:33:48.092Z,99902.59
2023-10-08T01:34:28.841Z,99902.59
2023-10-08T01:35:05.329Z,99901.75
2023-10-08T01:36:15.019Z,99903.81
2023-10-08T01:36:50.693Z,99905.50
2023-10-08T01:37:25.590Z,99906.75
2023-10-08T01:38:01.505Z,99905.44
2023-10-08T01:38:36.901Z,99909.41
2023-10-08T01:39:16.650Z,99905.59
2023-10-08T01:39:51.830Z,99909.19
2023-10-08T01:40:26.244Z,99915.19
2023-10-08T01:41:34.979Z,99914.22
2023-10-08T01:42:21.771Z,99912.09
2023-10-08T01:42:55.757Z,99919.63
2023-10-08T01:43:34.705Z,99912.34
2023-10-08T01:44:10.096Z,99918.44
2023-10-08T01:44:56.789Z,99916.81
2023-10-08T01:45:31.756Z,99920.16
2023-10-08T01:46:06.217Z,99918.03
2023-10-08T01:46:42.082Z,99922.03
2023-10-08T01:47:18.332Z,99917.44
2023-10-08T01:47:56.972Z,99911.75
2023-10-08T01:48:38.956Z,99916.34
2023-10-08T01:49:18.165Z,99909.25
2023-10-08T01:50:02.144Z,99906.91
2023-10-08T01:50:39.536Z,99911.28
2023-10-08T01:51:26.237Z,99915.03
2023-10-08T01:52:08.551Z,99916.50
2023-10-08T01:52:47.908Z,99905.44
2023-10-08T01:53:21.990Z,99915.03
2023-10-08T01:53:59.827Z,99909.25
2023-10-08T01:54:39.390Z,99903.63
2023-10-08T01:55:19.315Z,99901.09
2023-10-08T01:55:55.429Z,99902.59
2023-10-08T01:56:31.581Z,99906.97
2023-10-08T01:57:07.438Z,99905.09
2023-10-08T01:57:40.995Z,99905.34
2023-10-08T01:58:18.241Z,99909.25
2023-10-08T01:58:53.708Z,99899.22
2023-10-08T01:59:33.176Z,99907.16
2023-10-08T02:00:10.875Z,99900.69
2023-10-08T02:01:58.685Z,99898.34
2023-10-08T02:02:32.897Z,99897.50
2023-10-08T02:03:11.244Z,99899.56
2023-10-08T02:03:46.710Z,99896.16
2023-10-08T02:04:23.270Z,99895.78
2023-10-08T02:04:58.868Z,99894.53
2023-10-08T02:05:35.591Z,99888.91
2023-10-08T02:06:10.826Z,99894.97
2023-10-08T02:06:47.339Z,99893.94
2023-10-08T02:07:22.984Z,99891.41
2023-10-08T02:08:00.384Z,99893.50
2023-10-08T02:08:38.813Z,99891.63
2023-10-08T02:09:14.963Z,99889.94
2023-10-08T02:09:49.591Z,99889.94
2023-10-08T02:10:23.915Z,99888.91
2023-10-08T02:10:58.167Z,99878.84
2023-10-08T02:11:33.503Z,99892.25
2023-10-08T02:12:09.671Z,99894.38
2023-10-08T02:12:46.238Z,99891.72
2023-10-08T02:13:21.856Z,99902.84
2023-10-08T02:13:58.534Z,99898.81
2023-10-08T02:14:36.987Z,99899.44
2023-10-08T02:15:17.212Z,99899.81
2023-10-08T02:15:53.318Z,99892.72
2023-10-08T02:16:29.261Z,99907.13
2023-10-08T02:17:03.192Z,99900.84
2023-10-08T02:17:40.043Z,99894.78
2023-10-08T02:18:15.923Z,99894.97
2023-10-08T02:18:53.670Z,99892.06
2023-10-08T02:19:30.009Z,99897.03
2023-10-08T02:20:06.738Z,99893.75
2023-10-08T02:20:43.135Z,99897.31
2023-10-08T02:21:19.387Z,99897.16
2023-10-08T02:21:56.402Z,99877.59
2023-10-08T02:22:31.766Z,99894.25
2023-10-08T02:23:39.749Z,99891.94
2023-10-08T02:24:14.896Z,99894.00
2023-10-08T02:24:52.020Z,99889.78
2023-10-08T02:25:26.406Z,99886.88
2023-10-08T02:26:02.137Z,99885.03
2023-10-08T02:26:37.881Z,99886.25
2023-10-08T02:27:12.197Z,99890.47
2023-10-08T02:27:49.257Z,99888.75
2023-10-08T02:28:25.745Z,99884.16
2023-10-08T02:29:01.222Z,99882.50
2023-10-08T02:29:36.902Z,99893.81
2023-10-08T02:30:13.811Z,99887.34
2023-10-08T02:30:47.844Z,99889.00
2023-10-08T02:31:21.913Z,99882.97
2023-10-08T02:31:56.085Z,99891.94
2023-10-08T02:32:30.808Z,99882.56
2023-10-08T02:34:09.171Z,99884.44
2023-10-08T02:35:17.807Z,99886.97
2023-10-08T02:35:54.907Z,99891.16
2023-10-08T02:36:28.832Z,99895.16
2023-10-08T02:37:05.065Z,99886.16
2023-10-08T02:37:41.981Z,99885.53
2023-10-08T02:38:19.827Z,99884.94
2023-10-08T02:38:57.895Z,99886.41
2023-10-08T02:39:33.693Z,99882.44
2023-10-08T02:40:36.008Z,99889.53
2023-10-08T02:41:11.975Z,99878.25
2023-10-08T02:41:47.581Z,99889.72
2023-10-08T02:42:23.540Z,99881.38
2023-10-08T02:43:02.012Z,99882.03
2023-10-08T02:43:38.050Z,99880.56
2023-10-08T02:44:15.629Z,99880.56
2023-10-08T02:44:52.537Z,99879.09
2023-10-08T02:45:29.711Z,99872.84
2023-10-08T02:46:16.424Z,99866.16
2023-10-08T02:46:50.662Z,99871.81
2023-10-08T02:47:25.908Z,99868.19
2023-10-08T02:48:00.116Z,99864.91
2023-10-08T02:48:35.848Z,99866.56
2023-10-08T02:49:13.331Z,99863.88
2023-10-08T02:49:49.630Z,99870.13
2023-10-08T02:50:24.737Z,99859.28
2023-10-08T02:51:08.247Z,99869.50
2023-10-08T02:51:46.141Z,99857.41
2023-10-08T02:52:19.936Z,99865.53
2023-10-08T02:52:53.746Z,99864.03
2023-10-08T02:53:31.075Z,99863.19
2023-10-08T02:54:06.967Z,99856.72
2023-10-08T02:54:40.917Z,99863.81
2023-10-08T02:55:26.987Z,99858.19
2023-10-08T02:56:08.750Z,99859.84
2023-10-08T02:56:56.748Z,99860.84
2023-10-08T02:57:33.265Z,99861.50
2023-10-08T02:58:12.687Z,99856.09
2023-10-08T02:58:48.985Z,99859.63
2023-10-08T02:59:23.967Z,99854.22
2023-10-08T02:59:57.911Z,99855.88
2023-10-08T03:00:35.408Z,99856.72
2023-10-08T03:01:13.800Z,99859.44
2023-10-08T03:01:57.451Z,99854.00
2023-10-08T03:02:31.069Z,99855.94
2023-10-08T03:03:17.186Z,99853.84
2023-10-08T03:04:00.956Z,99847.78
2023-10-08T03:04:38.200Z,99849.09
2023-10-08T03:05:14.814Z,99854.94
2023-10-08T03:05:52.957Z,99852.22
2023-10-08T03:06:26.822Z,99852.81
2023-10-08T03:07:00.656Z,99857.22
2023-10-08T03:07:36.984Z,99862.03
2023-10-08T03:08:12.386Z,99857.84
2023-10-08T03:08:49.194Z,99851.78
2023-10-08T03:09:26.553Z,99857.84
2023-10-08T03:10:05.512Z,99853.50
2023-10-08T03:10:42.923Z,99856.44
2023-10-08T03:11:19.445Z,99854.72
2023-10-08T03:11:54.985Z,99848.88
2023-10-08T03:12:33.663Z,99857.00
2023-10-08T03:13:07.769Z,99852.00
2023-10-08T03:13:42.891Z,99854.56
2023-10-08T03:14:23.224Z,99857.28
2023-10-08T03:15:02.938Z,99852.69
2023-10-08T03:15:41.677Z,99853.09
2023-10-08T03:16:16.791Z,99848.50
2023-10-08T03:16:59.467Z,99847.03
2023-10-08T03:17:39.124Z,99849.34
2023-10-08T03:18:16.274Z,99852.25
2023-10-08T03:18:51.708Z,99850.59
2023-10-08T03:19:25.981Z,99848.47
2023-10-08T03:20:19.888Z,99851.84
2023-10-08T03:20:53.770Z,99838.06
2023-10-08T03:21:45.280Z,99846.41
2023-10-08T03:22:20.777Z,99835.50
2023-10-08T03:22:56.193Z,99846.38
2023-10-08T03:23:36.389Z,99837.13
2023-10-08T03:24:25.039Z,99837.78
2023-10-08T03:24:59.699Z,99839.25
2023-10-08T03:25:42.980Z,99847.59
2023-10-08T03:27:14.419Z,99852.75
2023-10-08T03:28:23.064Z,99845.72
2023-10-08T03:28:59.129Z,99841.06
2023-10-08T03:29:44.352Z,99847.59
2023-10-08T03:30:19.521Z,99842.13
2023-10-08T03:31:03.982Z,99843.16
2023-10-08T03:31:48.290Z,99838.19
2023-10-08T03:32:28.075Z,99842.75
2023-10-08T03:33:11.936Z,99848.78
2023-10-08T03:33:50.648Z,99847.28
2023-10-08T03:34:29.328Z,99850.00
2023-10-08T03:35:05.666Z,99847.06
2023-10-08T03:35:44.180Z,99854.34
2023-10-08T03:36:22.817Z,99844.53
2023-10-08T03:37:07.399Z,99842.91
2023-10-08T03:37:46.906Z,99849.16
2023-10-08T03:38:29.923Z,99860.22
2023-10-08T03:39:14.521Z,99855.84
2023-10-08T03:39:53.247Z,99851.19
2023-10-08T03:40:43.855Z,99854.53
2023-10-08T03:41:29.834Z,99849.53
2023-10-08T03:42:09.642Z,99853.91
2023-10-08T03:42:45.535Z,99848.69
2023-10-08T03:43:35.350Z,99845.31
2023-10-08T03:44:18.248Z,99850.16
2023-10-08T03:45:43.529Z,99845.50
2023-10-08T03:47:13.180Z,99846.03
2023-10-08T03:47:48.329Z,99851.09
2023-10-08T03:48:23.780Z,99848.56
2023-10-08T03:49:01.947Z,99857.81
2023-10-08T03:49:37.648Z,99851.91
2023-10-08T03:50:11.502Z,99849.66
2023-10-08T03:50:46.685Z,99851.44
2023-10-08T03:51:22.242Z,99850.19
2023-10-08T03:51:58.800Z,99852.13
2023-10-08T03:52:32.863Z,99848.38
2023-10-08T03:53:10.397Z,99852.13
2023-10-08T03:54:00.702Z,99855.72
2023-10-08T03:55:22.968Z,99862.34
2023-10-08T03:56:02.392Z,99852.38
2023-10-08T03:57:20.178Z,99855.94
2023-10-08T03:57:58.669Z,99862.75
2023-10-08T03:59:14.696Z,99848.94
2023-10-08T03:59:50.470Z,99844.34
2023-10-08T04:00:33.573Z,99852.91
2023-10-08T04:01:11.304Z,99857.66
2023-10-08T04:01:45.350Z,99847.00
2023-10-08T04:02:46.886Z,99846.59
2023-10-08T04:03:42.541Z,99856.59
2023-10-08T04:04:16.915Z,99851.81
2023-10-08T04:04:52.780Z,99860.97
2023-10-08T04:05:34.259Z,99855.28
2023-10-08T04:06:23.620Z,99854.72
2023-10-08T04:07:17.562Z,99852.84
2023-10-08T04:08:44.014Z,99851.34
2023-10-08T04:09:25.242Z,99856.66
2023-10-08T04:10:11.467Z,99852.56
2023-10-08T04:11:05.962Z,99851.06
2023-10-08T04:12:05.178Z,99843.94
2023-10-08T04:12:52.093Z,99848.53
2023-10-08T04:13:25.912Z,99848.09
2023-10-08T04:14:03.804Z,99847.84
2023-10-08T04:14:39.045Z,99834.28
2023-10-08T04:15:19.534Z,99839.50
2023-10-08T04:15:54.782Z,99838.88
2023-10-08T04:16:29.289Z,99836.59
2023-10-08T04:17:04.543Z,99847.25
2023-10-08T04:17:46.817Z,99836.41
2023-10-08T04:18:22.120Z,99838.88
2023-10-08T04:18:58.252Z,99837.63
2023-10-08T04:19:31.771Z,99835.97
2023-10-08T04:20:19.430Z,99838.28
2023-10-08T04:21:06.800Z,99838.22
2023-10-08T04:21:44.234Z,99834.69
2023-10-08T04:22:52.819Z,99834.84
2023-10-08T04:23:26.642Z,99834.69
2023-10-08T04:23:59.645Z,99832.41
2023-10-08T04:24:36.451Z,99830.72
2023-10-08T04:25:11.475Z,99839.91
2023-10-08T04:25:56.103Z,99837.00
2023-10-08T04:26:33.850Z,99840.16
2023-10-08T04:27:10.981Z,99831.38
2023-10-08T04:27:49.494Z,99829.25
2023-10-08T04:28:29.969Z,99830.66
2023-10-08T04:29:08.277Z,99829.84
2023-10-08T04:29:42.056Z,99829.44
2023-10-08T04:30:16.483Z,99831.31
2023-10-08T04:32:09.377Z,99832.53
2023-10-08T04:32:44.734Z,99836.72
2023-10-08T04:33:20.898Z,99826.09
2023-10-08T04:34:02.030Z,99832.91
2023-10-08T04:34:38.070Z,99837.22
2023-10-08T04:35:16.868Z,99838.53
2023-10-08T04:36:23.638Z,99834.69
2023-10-08T04:37:02.525Z,99832.81
2023-10-08T04:37:42.509Z,99836.53
2023-10-08T04:38:52.477Z,99831.66
2023-10-08T04:39:34.057Z,99828.72
2023-10-08T04:40:17.504Z,99819.78
2023-10-08T04:41:03.385Z,99828.72
2023-10-08T04:41:44.030Z,99824.28
2023-10-08T04:42:27.721Z,99824.28
2023-10-08T04:43:03.832Z,99823.88
2023-10-08T04:43:40.150Z,99823.31
2023-10-08T04:44:17.022Z,99830.88
2023-10-08T04:44:53.792Z,99829.38
2023-10-08T04:45:35.163Z,99836.66
2023-10-08T04:46:47.086Z,99829.56
2023-10-08T04:47:55.610Z,99830.81
2023-10-08T04:48:34.484Z,99819.31
2023-10-08T04:49:27.761Z,99825.75
2023-10-08T04:50:07.830Z,99819.69
2023-10-08T04:50:46.106Z,99830.06
2023-10-08T04:51:24.182Z,99818.91
2023-10-08T04:52:15.602Z,99817.97
2023-10-08T04:52:59.801Z,99820.41
2023-10-08T04:53:38.413Z,99818.31
2023-10-08T04:54:19.966Z,99821.69
2023-10-08T04:54:55.501Z,99816.66
2023-10-08T04:55:31.358Z,99816.44
2023-10-08T04:56:09.194Z,99834.38
2023-10-08T04:56:45.453Z,99829.16
2023-10-08T04:57:23.333Z,99832.28
2023-10-08T04:57:59.604Z,99826.84
2023-10-08T04:58:41.623Z,99831.69
2023-10-08T04:59:15.826Z,99826.25
2023-10-08T04:59:52.578Z,99834.38
2023-10-08T05:00:45.208Z,99827.75
2023-10-08T05:02:10.876Z,99821.09
2023-10-08T05:02:51.799Z,99824.00
2023-10-08T05:03:35.676Z,99817.44
2023-10-08T05:04:25.855Z,99822.00
2023-10-08T05:05:12.810Z,99818.09
2023-10-08T05:05:57.130Z,99821.84
2023-10-08T05:07:22.567Z,99819.31
2023-10-08T05:08:18.658Z,99822.84
2023-10-08T05:09:24.705Z,99807.19
2023-10-08T05:10:09.404Z,99815.56
2023-10-08T05:11:02.482Z,99815.94
2023-10-08T05:11:55.241Z,99803.44
2023-10-08T05:12:47.202Z,99815.19
2023-10-08T05:14:18.699Z,99802.88
2023-10-08T05:15:11.035Z,99814.34
2023-10-08T05:16:22.660Z,99808.09
2023-10-08T05:17:16.903Z,99807.75
2023-10-08T05:17:53.246Z,99797.50
2023-10-08T05:18:47.086Z,99803.78
2023-10-08T05:19:39.098Z,99802.28
2023-10-08T05:20:33.272Z,99794.81
2023-10-08T05:21:27.267Z,99803.56
2023-10-08T05:22:19.654Z,99821.97
2023-10-08T05:23:12.732Z,99810.28
2023-10-08T05:24:29.170Z,99810.47
2023-10-08T05:25:09.546Z,99811.28
2023-10-08T05:26:11.923Z,99816.97
2023-10-08T05:26:51.024Z,99811.63
2023-10-08T05:27:58.257Z,99813.59
2023-10-08T05:28:59.331Z,99820.69
2023-10-08T05:30:02.273Z,99827.41
2023-10-08T05:31:19.438Z,99818.63
2023-10-08T05:32:14.742Z,99825.97
2023-10-08T05:33:06.951Z,99822.41
2023-10-08T05:34:25.008Z,99814.53
2023-10-08T05:35:20.994Z,99813.13
2023-10-08T05:36:04.390Z,99816.91
2023-10-08T05:36:52.805Z,99818.13
2023-10-08T05:37:43.311Z,99811.50
2023-10-08T05:39:02.266Z,99810.25
2023-10-08T05:40:22.848Z,99812.59
2023-10-08T05:41:00.066Z,99815.97
2023-10-08T05:41:53.078Z,99813.72
2023-10-08T05:42:31.116Z,99809.75
2023-10-08T05:43:24.113Z,99812.06
2023-10-08T05:44:41.599Z,99809.59
2023-10-08T05:46:09.750Z,99809.00
2023-10-08T05:46:56.481Z,99804.47
2023-10-08T05:47:30.169Z,99812.19
2023-10-08T05:48:14.770Z,99803.44
2023-10-08T05:48:48.040Z,99806.38
2023-10-08T05:49:34.525Z,99804.69
2023-10-08T05:50:40.028Z,99805.13
2023-10-08T05:51:25.207Z,99808.72
2023-10-08T05:52:03.675Z,99803.09
2023-10-08T05:52:56.192Z,99806.66
2023-10-08T05:53:45.085Z,99805.00
2023-10-08T05:54:31.432Z,99806.69
2023-10-08T05:55:48.943Z,99804.41
2023-10-08T05:56:30.619Z,99800.31
2023-10-08T05:57:12.443Z,99801.56
2023-10-08T05:57:53.645Z,99807.66
2023-10-08T05:59:15.910Z,99802.00
2023-10-08T05:59:59.029Z,99807.03
2023-10-08T06:00:34.059Z,99803.06
2023-10-08T06:01:27.752Z,99804.53
2023-10-08T06:02:09.091Z,99814.41
2023-10-08T06:03:58.281Z,99808.75
2023-10-08T06:04:54.821Z,99813.59
2023-10-08T06:05:34.457Z,99805.44
2023-10-08T06:06:12.482Z,99810.22
2023-10-08T06:06:58.975Z,99805.22
2023-10-08T06:07:49.057Z,99811.72
2023-10-08T06:08:44.545Z,99814.66
2023-10-08T06:09:22.957Z,99808.59
2023-10-08T06:10:31.871Z,99806.91
2023-10-08T06:11:19.181Z,99817.19
2023-10-08T06:12:08.166Z,99814.28
2023-10-08T06:12:51.242Z,99820.16
2023-10-08T06:14:04.374Z,99813.00
2023-10-08T06:15:13.542Z,99820.16
2023-10-08T06:16:07.065Z,99808.25
2023-10-08T06:16:45.049Z,99818.69
2023-10-08T06:17:37.094Z,99818.06
2023-10-08T06:18:16.361Z,99810.75
2023-10-08T06:18:52.087Z,99809.94
2023-10-08T06:19:27.561Z,99814.31
2023-10-08T06:20:12.117Z,99810.59
2023-10-08T06:20:48.716Z,99812.09
2023-10-08T06:21:22.591Z,99818.97
2023-10-08T06:22:31.643Z,99818.75
2023-10-08T06:23:38.642Z,99821.28
2023-10-08T06:24:45.937Z,99813.31
2023-10-08T06:25:24.615Z,99815.03
2023-10-08T06:26:12.042Z,99811.47
2023-10-08T06:26:50.311Z,99813.53
2023-10-08T06:27:26.710Z,99814.19
2023-10-08T06:28:00.669Z,99815.00
2023-10-08T06:28:36.405Z,99817.09
2023-10-08T06:29:20.219Z,99816.47
2023-10-08T06:29:56.463Z,99817.75
2023-10-08T06:30:36.619Z,99823.19
2023-10-08T06:31:17.678Z,99811.88
2023-10-08T06:32:03.442Z,99813.97
2023-10-08T06:32:38.950Z,99820.00
2023-10-08T06:33:12.799Z,99810.59
2023-10-08T06:33:49.998Z,99812.25
2023-10-08T06:34:29.267Z,99812.28
2023-10-08T06:35:04.879Z,99816.88
2023-10-08T06:35:38.880Z,99816.22
2023-10-08T06:36:15.005Z,99817.25
2023-10-08T06:36:57.160Z,99818.09
2023-10-08T06:38:08.769Z,99828.13
2023-10-08T06:38:45.368Z,99828.13
2023-10-08T06:39:26.999Z,99827.94
2023-10-08T06:40:02.598Z,99824.97
2023-10-08T06:40:38.629Z,99824.34
2023-10-08T06:41:14.541Z,99826.00
2023-10-08T06:41:58.495Z,99828.75
2023-10-08T06:42:36.543Z,99832.25
2023-10-08T06:43:25.979Z,99822.38
2023-10-08T06:44:32.898Z,99821.53
2023-10-08T06:45:10.891Z,99822.94
2023-10-08T06:45:48.411Z,99830.91
2023-10-08T06:46:22.806Z,99815.00
2023-10-08T06:46:58.157Z,99820.19
2023-10-08T06:47:31.997Z,99828.56
2023-10-08T06:48:05.302Z,99814.97
2023-10-08T06:48:39.529Z,99817.91
2023-10-08T06:49:15.603Z,99816.19
2023-10-08T06:49:53.180Z,99820.78
2023-10-08T06:50:28.634Z,99814.72
2023-10-08T06:51:14.674Z,99817.69
2023-10-08T06:51:49.695Z,99816.63
2023-10-08T06:52:24.981Z,99814.13
2023-10-08T06:52:58.731Z,99813.75
2023-10-08T06:53:35.484Z,99821.28
2023-10-08T06:54:15.870Z,99819.63
2023-10-08T06:54:54.506Z,99812.28
2023-10-08T06:55:29.654Z,99817.50
2023-10-08T06:56:08.947Z,99815.84
2023-10-08T06:56:48.158Z,99822.38
2023-10-08T06:57:28.186Z,99814.63
2023-10-08T06:58:09.251Z,99822.00
2023-10-08T06:58:54.271Z,99823.91
2023-10-08T07:00:04.178Z,99830.41
2023-10-08T07:00:41.510Z,99835.41
2023-10-08T07:01:22.765Z,99838.56
2023-10-08T07:01:55.794Z,99827.22
2023-10-08T07:02:29.907Z,99825.38
2023-10-08T07:03:07.390Z,99813.03
2023-10-08T07:03:58.070Z,99824.16
2023-10-08T07:04:30.847Z,99825.38
2023-10-08T07:05:42.700Z,99816.38
2023-10-08T07:06:32.836Z,99819.31
2023-10-08T07:07:10.839Z,99818.03
2023-10-08T07:07:46.604Z,99820.97
2023-10-08T07:08:24.675Z,99826.81
2023-10-08T07:09:00.715Z,99815.47
2023-10-08T07:10:05.810Z,99830.59
2023-10-08T07:11:13.161Z,99828.03
2023-10-08T07:11:46.986Z,99840.22
2023-10-08T07:12:26.048Z,99828.69
2023-10-08T07:13:04.212Z,99826.75
2023-10-08T07:13:38.690Z,99831.13
2023-10-08T07:14:15.128Z,99823.97
2023-10-08T07:14:48.004Z,99830.72
2023-10-08T07:15:54.445Z,99838.25
2023-10-08T07:16:29.628Z,99836.31
2023-10-08T07:17:09.557Z,99835.50
2023-10-08T07:17:44.307Z,99833.84
2023-10-08T07:18:28.862Z,99839.69
2023-10-08T07:19:05.053Z,99837.13
2023-10-08T07:19:42.081Z,99823.53
2023-10-08T07:20:22.751Z,99835.66
2023-10-08T07:21:02.302Z,99842.78
2023-10-08T07:21:58.955Z,99835.25
2023-10-08T07:22:35.008Z,99828.53
2023-10-08T07:23:13.868Z,99843.00
2023-10-08T07:24:23.083Z,99839.97
2023-10-08T07:24:58.744Z,99838.53
2023-10-08T07:25:38.318Z,99847.13
2023-10-08T07:26:13.133Z,99837.31
2023-10-08T07:27:41.942Z,99830.69
2023-10-08T07:28:20.854Z,99829.22
2023-10-08T07:28:54.933Z,99829.63
2023-10-08T07:30:33.821Z,99829.72
2023-10-08T07:31:18.855Z,99834.81
2023-10-08T07:31:54.251Z,99836.34
2023-10-08T07:32:32.079Z,99838.03
2023-10-08T07:33:05.412Z,99835.81
2023-10-08T07:34:19.438Z,99834.75
2023-10-08T07:34:58.981Z,99833.84
2023-10-08T07:36:13.814Z,99821.00
2023-10-08T07:36:48.707Z,99823.69
2023-10-08T07:37:21.623Z,99824.41
2023-10-08T07:37:56.187Z,99830.84
2023-10-08T07:38:31.453Z,99821.34
2023-10-08T07:39:09.450Z,99829.75
2023-10-08T07:39:51.200Z,99822.97
2023-10-08T07:40:29.366Z,99819.25
2023-10-08T07:41:02.511Z,99823.56
2023-10-08T07:41:35.154Z,99821.16
2023-10-08T07:42:41.499Z,99825.13
2023-10-08T07:43:14.006Z,99814.25
2023-10-08T07:44:12.560Z,99822.88
2023-10-08T07:44:45.408Z,99829.97
2023-10-08T07:45:23.652Z,99829.59
2023-10-08T07:45:55.682Z,99843.09
2023-10-08T07:46:28.121Z,99835.38
2023-10-08T07:47:01.073Z,99846.22
2023-10-08T07:48:12.301Z,99845.91
2023-10-08T07:48:44.977Z,99836.56
2023-10-08T07:49:17.031Z,99843.41
2023-10-08T07:49:49.039Z,99843.25
2023-10-08T07:50:21.456Z,99840.38
2023-10-08T07:51:26.813Z,99834.00
2023-10-08T07:52:02.291Z,99838.03
2023-10-08T07:53:07.442Z,99836.16
2023-10-08T07:53:39.397Z,99832.94
2023-10-08T07:54:17.732Z,99848.88
2023-10-08T07:55:28.614Z,99850.00
2023-10-08T07:56:01.686Z,99845.78
2023-10-08T07:56:33.749Z,99843.50
2023-10-08T07:57:14.151Z,99854.97
2023-10-08T07:58:23.317Z,99853.81
2023-10-08T07:58:58.078Z,99858.94
2023-10-08T07:59:30.287Z,99848.34
2023-10-08T08:00:24.953Z,99864.50
2023-10-08T08:01:35.374Z,99858.75
2023-10-08T08:02:13.982Z,99854.38
2023-10-08T08:02:47.164Z,99853.78
2023-10-08T08:03:21.875Z,99851.84
2023-10-08T08:04:34.702Z,99866.03
2023-10-08T08:05:08.278Z,99858.28
2023-10-08T08:05:50.356Z,99859.09
2023-10-08T08:06:35.190Z,99857.53
2023-10-08T08:08:42.543Z,99853.66
2023-10-08T08:09:21.014Z,99865.38
2023-10-08T08:10:01.153Z,99855.78
2023-10-08T08:10:40.131Z,99858.34
2023-10-08T08:11:18.923Z,99860.25
2023-10-08T08:11:51.296Z,99853.97
2023-10-08T08:12:26.824Z,99863.72
2023-10-08T08:13:02.990Z,99866.34
2023-10-08T08:13:48.236Z,99863.50
2023-10-08T08:14:55.841Z,99861.38
2023-10-08T08:15:30.829Z,99865.53
2023-10-08T08:17:24.088Z,99865.44
2023-10-08T08:18:35.910Z,99862.56
2023-10-08T08:19:11.407Z,99848.97
2023-10-08T08:19:45.970Z,99856.84
2023-10-08T08:20:52.082Z,99861.72
2023-10-08T08:21:27.087Z,99861.81
2023-10-08T08:22:04.241Z,99860.56
2023-10-08T08:22:42.761Z,99856.75
2023-10-08T08:23:18.109Z,99855.06
2023-10-08T08:23:51.640Z,99850.88
2023-10-08T08:24:46.261Z,99853.50
2023-10-08T08:25:27.948Z,99856.03
2023-10-08T08:27:04.353Z,99845.88
2023-10-08T08:27:42.849Z,99858.72
2023-10-08T08:28:33.413Z,99852.06
2023-10-08T08:30:24.299Z,99851.31
2023-10-08T08:30:59.099Z,99850.06
2023-10-08T08:31:37.094Z,99845.66
2023-10-08T08:32:09.401Z,99840.97
2023-10-08T08:33:23.325Z,99838.69
2023-10-08T08:34:51.983Z,99835.94